Time;durP1;ratioP1;P1;durP2;ratioP2;P2;SDS_P1;SDS_P2;PMS_P1;PMS_P2;Temp;Humidity;BMP_temperature;BMP_pressure;BME280_temperature;BME280_humidity;BME280_pressure;Samples;Min_cycle;Max_cycle;Signal;HPM_P1;HPM_P2
2021/07/23 00:01:37;;;;;;;17.00;15.30;;;17.20;99.90;;;;;;5003226;28;20650;-90
2021/07/23 00:04:04;;;;;;;18.27;16.37;;;17.30;99.90;;;;;;4998983;28;20619;-90
2021/07/23 00:06:30;;;;;;;21.63;17.40;;;17.20;99.90;;;;;;5001936;28;20619;-90
2021/07/23 00:08:57;;;;;;;18.93;17.13;;;17.10;99.90;;;;;;5003480;28;20633;-91
2021/07/23 00:11:24;;;;;;;18.67;16.73;;;17.10;99.90;;;;;;5001272;28;20670;-89
2021/07/23 00:13:51;;;;;;;19.60;15.83;;;17.10;99.90;;;;;;5005234;28;20640;-90
2021/07/23 00:16:17;;;;;;;18.37;16.60;;;17.10;99.90;;;;;;5002689;28;20724;-89
2021/07/23 00:18:46;;;;;;;16.23;14.63;;;17.00;99.90;;;;;;5001640;28;20628;-89
2021/07/23 00:21:13;;;;;;;17.43;15.83;;;17.00;99.90;;;;;;5007424;28;20651;-91
2021/07/23 00:23:40;;;;;;;18.10;15.43;;;17.00;99.90;;;;;;5006307;28;20651;-89
2021/07/23 00:26:11;;;;;;;17.80;16.10;;;17.00;99.90;;;;;;5001017;28;20663;-94
2021/07/23 00:28:37;;;;;;;17.27;15.50;;;17.00;99.90;;;;;;5002469;28;20627;-93
2021/07/23 00:31:04;;;;;;;16.93;15.23;;;17.00;99.90;;;;;;5006062;28;20668;-92
2021/07/23 00:33:31;;;;;;;17.13;15.30;;;16.90;99.90;;;;;;5008001;28;20628;-93
2021/07/23 00:36:01;;;;;;;14.60;13.20;;;17.00;99.90;;;;;;5000215;28;20979;-91
2021/07/23 00:38:28;;;;;;;16.10;14.70;;;17.00;99.90;;;;;;5005739;28;20635;-93
2021/07/23 00:40:55;;;;;;;15.43;14.07;;;17.00;99.90;;;;;;5006276;28;20729;-94
2021/07/23 00:43:22;;;;;;;15.60;14.30;;;16.90;99.90;;;;;;4999748;28;20625;-94
2021/07/23 00:45:49;;;;;;;14.93;13.63;;;16.90;99.90;;;;;;5001351;28;21068;-92
2021/07/23 00:48:16;;;;;;;15.73;14.23;;;16.80;99.90;;;;;;4998830;28;20621;-92
2021/07/23 00:50:44;;;;;;;15.90;14.50;;;16.80;99.90;;;;;;4999105;28;20656;-92
2021/07/23 00:53:13;;;;;;;15.80;14.40;;;16.80;99.90;;;;;;5004893;28;20988;-92
2021/07/23 00:55:41;;;;;;;15.37;14.07;;;16.80;99.90;;;;;;5004801;28;21035;-91
2021/07/23 00:58:08;;;;;;;15.20;13.70;;;16.90;99.90;;;;;;5005370;28;20640;-94
2021/07/23 01:00:36;;;;;;;13.80;12.70;;;16.90;99.90;;;;;;5004373;28;20993;-94
2021/07/23 01:03:04;;;;;;;15.97;14.33;;;17.00;99.90;;;;;;5003941;28;20722;-93
2021/07/23 01:05:31;;;;;;;15.13;13.47;;;17.00;99.90;;;;;;5005966;28;20662;-93
2021/07/23 01:08:01;;;;;;;14.73;13.30;;;17.00;99.90;;;;;;5005718;28;20815;-92
2021/07/23 01:10:31;;;;;;;19.43;14.20;;;17.00;99.90;;;;;;5004885;28;20655;-92
2021/07/23 01:13:00;;;;;;;15.03;13.67;;;17.00;99.90;;;;;;5002327;28;20636;-92
2021/07/23 01:15:27;;;;;;;16.00;14.33;;;17.10;99.90;;;;;;4998533;28;20628;-91
2021/07/23 01:17:53;;;;;;;14.83;13.43;;;17.10;99.90;;;;;;4996735;28;20624;-91
2021/07/23 01:20:24;;;;;;;15.03;13.73;;;17.00;99.90;;;;;;5002590;28;20652;-90
2021/07/23 01:22:52;;;;;;;14.40;12.90;;;17.00;99.90;;;;;;4999468;28;20619;-91
2021/07/23 01:25:22;;;;;;;15.33;13.73;;;16.90;99.90;;;;;;4996188;28;20669;-91
2021/07/23 01:27:51;;;;;;;14.83;13.43;;;16.90;99.90;;;;;;5001027;28;20624;-93
2021/07/23 01:30:19;;;;;;;15.30;14.00;;;16.70;99.90;;;;;;5001720;28;20907;-93
2021/07/23 01:32:45;;;;;;;14.47;13.10;;;16.50;99.90;;;;;;5007190;28;21195;-92
2021/07/23 01:35:13;;;;;;;14.87;13.57;;;16.60;99.90;;;;;;5000007;28;21098;-92
2021/07/23 01:37:41;;;;;;;15.03;13.47;;;16.60;99.90;;;;;;5001261;28;20914;-93
2021/07/23 01:40:09;;;;;;;16.30;14.80;;;16.60;99.90;;;;;;5001941;28;20663;-93
2021/07/23 01:42:37;;;;;;;14.67;13.33;;;16.60;99.90;;;;;;4998805;28;20624;-93
2021/07/23 01:45:05;;;;;;;17.33;13.77;;;16.60;99.90;;;;;;5013350;28;20930;-92
2021/07/23 01:47:32;;;;;;;14.00;12.80;;;16.50;99.90;;;;;;5020734;28;20628;-93
2021/07/23 01:49:59;;;;;;;15.40;14.00;;;16.50;99.90;;;;;;5010660;28;20648;-92
2021/07/23 01:52:26;;;;;;;14.57;13.23;;;16.50;99.90;;;;;;5004108;28;21246;-93
2021/07/23 01:54:53;;;;;;;14.67;13.37;;;16.50;99.90;;;;;;5001678;28;20675;-92
2021/07/23 01:57:20;;;;;;;15.00;13.50;;;16.50;99.90;;;;;;5002864;28;21188;-93
2021/07/23 01:59:48;;;;;;;14.43;13.23;;;16.40;99.90;;;;;;5002957;28;20658;-93
2021/07/23 02:02:15;;;;;;;14.10;12.70;;;16.40;99.90;;;;;;4998603;28;20719;-92
2021/07/23 02:04:42;;;;;;;16.80;14.40;;;16.40;99.90;;;;;;5003262;28;20723;-92
2021/07/23 02:07:08;;;;;;;14.33;13.00;;;16.30;99.90;;;;;;5002168;28;20966;-92
2021/07/23 02:09:35;;;;;;;14.50;13.20;;;16.30;99.90;;;;;;4996052;28;20651;-92
2021/07/23 02:12:02;;;;;;;13.77;12.57;;;16.20;99.90;;;;;;5005768;28;20616;-92
2021/07/23 02:14:30;;;;;;;14.43;13.17;;;16.10;99.90;;;;;;5004181;28;21209;-93
2021/07/23 02:16:58;;;;;;;14.10;12.90;;;16.00;99.90;;;;;;5000784;28;20969;-95
2021/07/23 02:19:25;;;;;;;15.40;14.00;;;16.00;99.90;;;;;;5004893;28;20616;-93
2021/07/23 02:21:52;;;;;;;16.50;13.90;;;15.90;99.90;;;;;;5002270;28;20667;-91
2021/07/23 02:24:19;;;;;;;15.10;13.53;;;15.90;99.90;;;;;;5001156;28;20990;-92
2021/07/23 02:26:46;;;;;;;14.10;12.77;;;15.90;99.90;;;;;;4999101;28;20656;-92
2021/07/23 02:29:12;;;;;;;14.13;13.00;;;15.90;99.90;;;;;;5003796;28;20660;-91
2021/07/23 02:31:39;;;;;;;15.50;14.10;;;15.90;99.90;;;;;;4999494;28;20942;-92
2021/07/23 02:34:07;;;;;;;15.40;14.10;;;15.90;99.90;;;;;;4996504;28;20624;-92
2021/07/23 02:36:34;;;;;;;15.33;13.90;;;16.00;99.90;;;;;;5002216;28;20634;-91
2021/07/23 05:01:27;;;;;;;19.93;18.23;;;15.50;99.90;;;;;;4839073;23;21299;-95
2021/07/23 05:03:54;;;;;;;18.20;16.70;;;15.60;99.90;;;;;;5019780;28;20837;-93
2021/07/23 05:06:21;;;;;;;20.33;18.63;;;15.70;99.90;;;;;;5024455;28;20654;-93
2021/07/23 05:08:49;;;;;;;18.23;16.63;;;15.70;99.90;;;;;;5019139;28;20665;-93
2021/07/23 05:11:17;;;;;;;18.37;16.70;;;15.70;99.90;;;;;;5019539;28;20630;-93
2021/07/23 05:13:44;;;;;;;21.10;18.73;;;15.80;99.90;;;;;;5024521;28;20618;-94
2021/07/23 05:16:11;;;;;;;19.17;17.47;;;15.90;99.90;;;;;;5025047;28;20611;-93
2021/07/23 05:18:40;;;;;;;21.37;19.27;;;16.00;99.90;;;;;;5021874;28;21060;-95
2021/07/23 05:21:11;;;;;;;18.13;16.63;;;16.10;99.90;;;;;;5026603;28;20734;-94
2021/07/23 05:23:40;;;;;;;20.17;18.47;;;16.20;99.90;;;;;;5026018;28;20639;-94
2021/07/23 05:26:07;;;;;;;21.40;19.40;;;16.20;99.90;;;;;;5026947;28;21225;-93
2021/07/23 05:28:34;;;;;;;20.00;18.10;;;16.10;99.90;;;;;;5024315;28;21185;-92
2021/07/23 05:31:01;;;;;;;21.93;19.73;;;16.10;99.90;;;;;;5025059;28;20982;-92
2021/07/23 05:33:28;;;;;;;19.77;18.10;;;16.20;99.90;;;;;;5020059;28;21221;-92
2021/07/23 05:35:56;;;;;;;20.63;18.80;;;16.30;99.90;;;;;;5018556;28;21261;-94
2021/07/23 05:38:23;;;;;;;20.00;18.20;;;16.40;99.90;;;;;;5020588;28;20654;-93
2021/07/23 05:40:50;;;;;;;21.10;19.10;;;16.40;99.90;;;;;;5024833;28;20631;-93
2021/07/23 05:43:17;;;;;;;23.07;20.73;;;16.50;99.90;;;;;;5019147;28;20673;-94
2021/07/23 05:45:44;;;;;;;21.47;19.47;;;16.60;99.90;;;;;;5023042;28;20781;-95
2021/07/23 05:48:11;;;;;;;19.17;17.37;;;16.70;99.90;;;;;;5025305;28;20703;-94
2021/07/23 05:50:38;;;;;;;20.10;18.13;;;16.80;99.90;;;;;;5024433;28;20635;-94
2021/07/23 05:53:06;;;;;;;20.77;18.87;;;16.90;99.90;;;;;;5024051;28;21154;-94
2021/07/23 05:55:34;;;;;;;19.87;17.70;;;17.00;99.90;;;;;;5019926;28;20645;-92
2021/07/23 05:58:00;;;;;;;19.73;17.40;;;17.10;99.90;;;;;;5020962;28;20645;-96
2021/07/23 06:00:28;;;;;;;19.90;18.30;;;17.20;99.90;;;;;;5020669;28;20645;-94
2021/07/23 06:02:55;;;;;;;18.97;17.27;;;17.30;99.90;;;;;;5024540;28;20677;-93
2021/07/23 06:05:22;;;;;;;19.73;17.83;;;17.50;99.90;;;;;;5027992;28;20903;-94
2021/07/23 06:07:48;;;;;;;18.53;16.97;;;17.60;99.90;;;;;;5025584;28;21204;-88
2021/07/23 06:10:17;;;;;;;18.63;17.03;;;17.60;99.90;;;;;;5021401;28;20998;-88
2021/07/23 06:12:43;;;;;;;18.37;16.50;;;17.70;99.90;;;;;;5024275;28;20623;-87
2021/07/23 06:15:11;;;;;;;19.07;17.10;;;17.80;99.90;;;;;;5025062;28;22429;-88
2021/07/23 06:17:37;;;;;;;17.07;15.60;;;17.80;99.90;;;;;;5022636;28;20634;-88
2021/07/23 06:20:05;;;;;;;18.30;16.57;;;18.00;99.90;;;;;;5022061;28;20646;-88
2021/07/23 06:22:32;;;;;;;18.70;16.80;;;18.10;99.90;;;;;;5023777;28;20619;-87
2021/07/23 06:24:58;;;;;;;19.10;16.10;;;18.10;99.90;;;;;;5024088;28;21236;-86
2021/07/23 06:27:26;;;;;;;18.37;16.33;;;18.10;99.90;;;;;;5021436;28;20678;-86
2021/07/23 06:29:55;;;;;;;18.30;16.47;;;18.10;99.90;;;;;;5015415;28;20627;-86
2021/07/23 06:32:23;;;;;;;14.63;13.23;;;18.10;99.90;;;;;;5024108;28;20639;-85
2021/07/23 06:34:49;;;;;;;15.50;12.97;;;18.20;99.90;;;;;;5020620;28;21284;-88
2021/07/23 06:37:20;;;;;;;18.03;16.23;;;18.30;99.90;;;;;;5021496;28;20983;-88
2021/07/23 06:39:47;;;;;;;17.13;15.60;;;18.30;99.90;;;;;;5020875;28;20650;-87
2021/07/23 06:42:14;;;;;;;16.77;15.07;;;18.40;99.90;;;;;;5021849;28;21174;-88
2021/07/23 06:44:42;;;;;;;17.80;16.17;;;18.50;99.90;;;;;;5025128;28;20713;-88
2021/07/23 06:47:09;;;;;;;18.17;16.40;;;18.50;99.90;;;;;;5020369;28;20673;-88
2021/07/23 06:49:36;;;;;;;13.40;12.10;;;18.70;99.90;;;;;;5023421;28;20629;-88
2021/07/23 06:52:04;;;;;;;13.10;11.80;;;18.70;99.90;;;;;;5022091;28;20611;-87
2021/07/23 06:54:30;;;;;;;15.43;12.80;;;18.90;99.90;;;;;;5018054;28;20631;-87
2021/07/23 06:56:57;;;;;;;16.13;14.33;;;19.00;99.90;;;;;;5022976;28;20930;-86
2021/07/23 06:59:24;;;;;;;15.77;14.03;;;19.10;99.90;;;;;;5014292;28;21166;-86
2021/07/23 07:01:52;;;;;;;17.23;15.43;;;19.20;99.90;;;;;;5017183;28;20635;-88
2021/07/23 07:04:19;;;;;;;16.60;15.10;;;19.30;99.90;;;;;;5023328;28;21033;-86
2021/07/23 07:06:46;;;;;;;16.20;14.70;;;19.20;99.90;;;;;;5020620;28;20686;-88
2021/07/23 07:09:13;;;;;;;17.73;15.83;;;19.30;99.90;;;;;;5020952;28;20618;-88
2021/07/23 07:11:39;;;;;;;16.87;15.17;;;19.50;99.90;;;;;;5021291;28;20638;-87
2021/07/23 07:14:06;;;;;;;16.97;15.30;;;19.60;99.90;;;;;;5018086;28;20884;-87
2021/07/23 07:16:33;;;;;;;16.23;14.63;;;19.70;99.90;;;;;;5017457;28;20678;-88
2021/07/23 07:19:01;;;;;;;17.17;14.33;;;19.70;99.90;;;;;;5020219;28;20694;-88
2021/07/23 07:21:28;;;;;;;13.37;11.40;;;19.70;99.90;;;;;;5023896;28;20626;-88
2021/07/23 07:23:55;;;;;;;14.97;12.90;;;19.90;99.90;;;;;;5022753;28;20637;-88
2021/07/23 07:26:22;;;;;;;17.70;10.70;;;19.90;99.90;;;;;;5023315;28;20687;-87
2021/07/23 07:28:49;;;;;;;16.77;13.07;;;20.00;99.90;;;;;;5018419;28;20631;-88
2021/07/23 07:31:17;;;;;;;14.47;12.97;;;20.10;99.90;;;;;;5026794;28;20620;-88
2021/07/23 07:33:44;;;;;;;20.97;12.30;;;20.00;99.90;;;;;;5025137;28;21055;-88
2021/07/23 07:36:17;;;;;;;14.57;12.70;;;20.20;99.90;;;;;;5026426;28;21311;-88
2021/07/23 07:38:43;;;;;;;15.40;13.80;;;20.30;99.90;;;;;;5026248;28;20708;-88
2021/07/23 07:41:10;;;;;;;16.43;14.83;;;20.40;99.90;;;;;;5026010;28;20638;-88
2021/07/23 07:43:37;;;;;;;14.97;13.47;;;20.60;99.90;;;;;;5021234;28;20995;-86
2021/07/23 07:46:03;;;;;;;16.90;12.40;;;20.70;99.90;;;;;;5020705;28;20686;-86
2021/07/23 07:48:30;;;;;;;13.30;12.00;;;20.60;99.90;;;;;;5021664;28;20622;-86
2021/07/23 07:50:57;;;;;;;14.23;12.53;;;20.70;99.90;;;;;;5026149;28;20627;-86
2021/07/23 07:53:25;;;;;;;14.10;12.80;;;20.60;99.90;;;;;;5021461;28;20952;-86
2021/07/23 07:55:51;;;;;;;16.17;11.60;;;20.80;99.90;;;;;;5020872;28;20661;-86
2021/07/23 07:58:18;;;;;;;13.57;12.17;;;21.00;99.90;;;;;;5020440;28;20635;-87
2021/07/23 08:00:45;;;;;;;14.27;12.47;;;21.10;99.90;;;;;;5025257;28;20622;-86
2021/07/23 08:03:12;;;;;;;12.80;11.50;;;21.30;99.90;;;;;;5025354;28;20636;-87
2021/07/23 08:05:39;;;;;;;14.87;13.20;;;21.30;99.90;;;;;;5027491;28;20646;-86
2021/07/23 08:08:09;;;;;;;14.30;12.77;;;21.50;99.90;;;;;;5020916;28;20679;-86
2021/07/23 08:10:38;;;;;;;13.93;12.63;;;21.50;99.90;;;;;;5020321;28;20635;-90
2021/07/23 08:13:05;;;;;;;16.00;14.40;;;21.60;99.90;;;;;;5023372;28;20631;-91
2021/07/23 08:15:32;;;;;;;12.90;11.57;;;21.90;99.90;;;;;;5023923;28;20696;-92
2021/07/23 08:17:58;;;;;;;12.60;11.30;;;21.80;99.90;;;;;;5024531;28;21008;-93
2021/07/23 08:20:25;;;;;;;14.43;12.90;;;21.80;99.90;;;;;;5022732;28;20630;-91
2021/07/23 08:22:52;;;;;;;14.17;12.77;;;22.00;99.90;;;;;;5014899;28;20694;-91
2021/07/23 08:25:19;;;;;;;16.30;14.57;;;21.90;99.90;;;;;;5015281;28;20651;-92
2021/07/23 08:27:47;;;;;;;15.27;13.90;;;22.00;99.90;;;;;;5022983;28;20634;-93
2021/07/23 08:30:15;;;;;;;18.00;13.97;;;22.10;99.90;;;;;;5019131;28;20639;-92
2021/07/23 08:32:44;;;;;;;15.00;13.07;;;22.20;99.90;;;;;;5022760;28;20642;-92
2021/07/23 08:35:12;;;;;;;14.77;13.37;;;22.40;99.90;;;;;;5025139;28;20655;-92
2021/07/23 08:37:38;;;;;;;13.87;12.47;;;22.60;99.90;;;;;;5015662;28;21226;-91
2021/07/23 08:40:06;;;;;;;14.77;13.37;;;22.80;99.90;;;;;;5020473;28;20634;-91
2021/07/23 08:42:34;;;;;;;12.80;11.33;;;22.90;99.90;;;;;;5023122;28;20889;-91
2021/07/23 08:45:05;;;;;;;13.77;12.47;;;22.90;99.90;;;;;;5023497;28;20662;-91
2021/07/23 08:47:32;;;;;;;16.57;12.33;;;22.90;99.90;;;;;;5020374;28;20622;-91
2021/07/23 08:49:59;;;;;;;15.17;12.50;;;23.00;99.90;;;;;;5026115;28;20627;-91
2021/07/23 08:52:41;;;;;;;13.70;12.50;;;23.20;99.90;;;;;;5027080;28;20661;-91
2021/07/23 08:55:09;;;;;;;12.60;11.30;;;23.50;99.90;;;;;;5022583;28;20650;-91
2021/07/23 08:57:36;;;;;;;13.13;11.97;;;23.70;99.90;;;;;;5019817;28;20924;-92
2021/07/23 09:00:08;;;;;;;14.20;12.90;;;23.70;99.90;;;;;;5022388;28;21219;-91
2021/07/23 09:02:50;;;;;;;12.70;11.50;;;23.70;99.90;;;;;;5020794;28;20630;-92
2021/07/23 09:05:18;;;;;;;12.53;11.40;;;24.00;99.90;;;;;;5022203;28;20682;-91
2021/07/23 09:07:45;;;;;;;15.03;10.83;;;24.00;99.90;;;;;;5022534;28;20668;-91
2021/07/23 09:10:12;;;;;;;11.80;10.80;;;24.20;99.90;;;;;;5024000;28;20633;-92
2021/07/23 09:12:46;;;;;;;12.00;10.73;;;24.00;99.90;;;;;;5022335;28;20693;-91
2021/07/23 09:15:19;;;;;;;12.43;10.90;;;24.20;99.90;;;;;;5023491;28;21264;-91
2021/07/23 09:17:46;;;;;;;11.93;10.90;;;24.50;99.90;;;;;;5022089;28;20803;-91
2021/07/23 09:20:14;;;;;;;13.03;11.73;;;24.50;99.90;;;;;;5023929;28;20641;-92
2021/07/23 09:22:48;;;;;;;18.10;11.80;;;24.60;99.90;;;;;;5023298;28;20641;-91
2021/07/23 09:25:15;;;;;;;12.70;11.60;;;24.60;99.90;;;;;;5019022;28;20655;-92
2021/07/23 09:27:42;;;;;;;13.37;12.07;;;24.60;99.90;;;;;;5017908;28;20667;-91
2021/07/23 09:30:12;;;;;;;12.70;11.70;;;24.50;99.90;;;;;;5017499;28;20665;-91
2021/07/23 09:32:41;;;;;;;12.63;11.43;;;24.80;99.90;;;;;;5022054;28;20698;-91
2021/07/23 09:35:13;;;;;;;17.03;12.13;;;24.80;99.90;;;;;;5022686;28;20666;-91
2021/07/23 09:37:54;;;;;;;12.53;11.33;;;24.70;99.90;;;;;;5022235;28;20631;-91
2021/07/23 09:40:21;;;;;;;13.00;11.90;;;24.80;99.90;;;;;;5024259;28;20602;-91
2021/07/23 09:42:56;;;;;;;14.07;11.60;;;25.20;99.90;;;;;;5019886;28;20634;-92
2021/07/23 09:45:30;;;;;;;13.90;11.83;;;25.40;99.90;;;;;;5022350;28;20653;-92
2021/07/23 09:48:11;;;;;;;13.00;11.70;;;25.50;99.90;;;;;;5024882;28;20651;-91
2021/07/23 09:50:43;;;;;;;12.20;11.17;;;25.80;99.90;;;;;;5015113;28;20655;-91
2021/07/23 09:53:10;;;;;;;13.77;12.67;;;25.60;99.90;;;;;;5018537;28;20659;-91
2021/07/23 09:55:37;;;;;;;11.90;10.83;;;25.70;99.90;;;;;;5024982;28;20647;-91
2021/07/23 09:58:06;;;;;;;11.70;10.80;;;25.70;99.90;;;;;;5015203;28;20626;-91
2021/07/23 10:00:38;;;;;;;14.03;11.23;;;25.60;99.90;;;;;;5022639;28;21205;-92
2021/07/23 10:03:13;;;;;;;12.30;11.23;;;25.60;99.90;;;;;;5018046;28;21193;-91
2021/07/23 10:05:47;;;;;;;11.57;10.50;;;25.50;99.90;;;;;;5021949;28;20757;-91
2021/07/23 10:08:23;;;;;;;11.10;10.10;;;25.70;99.90;;;;;;5022599;28;20697;-91
2021/07/23 10:10:52;;;;;;;12.40;11.40;;;26.00;99.90;;;;;;5021393;28;20591;-91
2021/07/23 10:13:21;;;;;;;11.80;10.70;;;25.90;99.90;;;;;;5023142;28;20650;-91
2021/07/23 10:15:50;;;;;;;12.03;11.03;;;26.20;99.90;;;;;;5019418;28;20662;-91
2021/07/23 10:18:18;;;;;;;11.43;10.43;;;26.30;99.90;;;;;;5021296;28;21174;-91
2021/07/23 10:20:47;;;;;;;11.20;10.30;;;26.20;99.90;;;;;;5018504;28;21085;-91
2021/07/23 10:23:18;;;;;;;12.80;11.20;;;26.10;99.90;;;;;;5022614;28;20681;-91
2021/07/23 10:25:47;;;;;;;12.17;11.00;;;26.20;99.90;;;;;;5016159;28;20650;-92
2021/07/23 10:28:54;;;;;;;13.07;11.77;;;26.50;99.90;;;;;;5021688;28;20663;-91
2021/07/23 10:31:46;;;;;;;11.43;10.43;;;26.40;99.90;;;;;;5019638;28;20681;-92
2021/07/23 10:34:33;;;;;;;12.60;8.70;;;26.90;97.60;;;;;;5022951;28;21225;-92
2021/07/23 10:37:01;;;;;;;11.40;10.50;;;27.20;94.80;;;;;;5022021;28;20647;-92
2021/07/23 10:39:28;;;;;;;9.90;9.00;;;27.00;94.70;;;;;;5018788;28;20630;-91
2021/07/23 10:42:34;;;;;;;11.73;9.70;;;27.30;94.40;;;;;;5026117;28;20635;-91
2021/07/23 10:45:03;;;;;;;11.20;10.30;;;27.80;93.50;;;;;;5020331;28;20647;-91
2021/07/23 10:47:40;;;;;;;10.80;9.80;;;27.60;93.00;;;;;;5022570;28;20670;-91
2021/07/23 10:50:11;;;;;;;10.00;9.10;;;27.60;91.60;;;;;;5020953;28;20622;-91
2021/07/23 10:52:38;;;;;;;11.23;9.70;;;27.60;91.40;;;;;;5022976;28;20614;-91
2021/07/23 10:55:19;;;;;;;11.83;9.30;;;27.80;91.80;;;;;;5021155;28;21330;-91
2021/07/23 10:58:25;;;;;;;12.60;10.37;;;28.40;91.10;;;;;;5019766;28;20635;-91
2021/07/23 11:00:54;;;;;;;12.07;11.00;;;28.40;90.70;;;;;;5022166;28;20653;-91
2021/07/23 11:03:47;;;;;;;11.03;10.03;;;28.50;90.10;;;;;;5020678;28;20745;-91
2021/07/23 11:06:17;;;;;;;12.40;10.40;;;28.30;90.40;;;;;;5020999;28;20712;-91
2021/07/23 11:08:48;;;;;;;11.67;10.57;;;28.60;93.20;;;;;;5017406;28;21264;-91
2021/07/23 11:11:15;;;;;;;10.87;9.87;;;29.00;92.90;;;;;;5012111;28;20627;-91
2021/07/23 11:13:42;;;;;;;11.27;10.37;;;29.10;93.40;;;;;;5019136;28;20618;-91
2021/07/23 11:16:11;;;;;;;11.10;10.30;;;29.60;91.80;;;;;;5015504;28;21250;-91
2021/07/23 11:18:54;;;;;;;11.70;10.80;;;29.60;93.90;;;;;;5022254;28;20615;-92
2021/07/23 11:21:23;;;;;;;10.97;10.17;;;29.90;90.90;;;;;;5020467;28;20718;-91
2021/07/23 11:23:50;;;;;;;12.17;11.27;;;29.60;90.60;;;;;;5020604;28;20686;-91
2021/07/23 11:26:25;;;;;;;11.80;10.60;;;29.20;90.60;;;;;;5023641;28;21051;-91
2021/07/23 11:28:55;;;;;;;10.70;10.00;;;29.80;91.20;;;;;;5014816;28;20674;-91
2021/07/23 11:31:31;;;;;;;9.90;9.10;;;30.30;91.10;;;;;;5008876;28;20631;-91
2021/07/23 11:34:00;;;;;;;15.10;10.60;;;30.50;89.50;;;;;;5017449;28;20633;-91
2021/07/23 11:36:40;;;;;;;12.00;9.73;;;30.70;90.50;;;;;;5022142;28;20663;-91
2021/07/23 11:39:09;;;;;;;10.33;9.53;;;31.00;88.30;;;;;;5019212;28;21184;-91
2021/07/23 11:41:37;;;;;;;12.57;11.40;;;30.80;90.50;;;;;;5019805;28;21232;-91
2021/07/23 11:44:09;;;;;;;11.80;10.80;;;31.00;84.70;;;;;;5020069;28;20633;-91
2021/07/23 11:46:37;;;;;;;12.07;10.67;;;31.30;87.20;;;;;;5019127;28;21358;-90
2021/07/23 11:49:05;;;;;;;12.50;11.50;;;31.00;87.60;;;;;;5017523;28;21232;-92
2021/07/23 11:51:42;;;;;;;10.97;9.97;;;31.00;87.00;;;;;;5023355;28;20615;-92
2021/07/23 11:54:09;;;;;;;10.13;9.33;;;30.30;86.80;;;;;;5016914;28;20738;-92
2021/07/23 11:56:39;;;;;;;11.40;10.60;;;29.30;88.00;;;;;;5021541;28;21294;-91
2021/07/23 11:59:06;;;;;;;11.50;10.60;;;29.00;90.50;;;;;;5021166;28;20637;-91
2021/07/23 12:01:37;;;;;;;11.90;10.90;;;29.40;90.60;;;;;;5019296;28;20645;-90
2021/07/23 12:04:04;;;;;;;12.40;11.10;;;30.00;87.50;;;;;;5015045;28;20632;-91
2021/07/23 12:06:32;;;;;;;12.10;11.00;;;29.90;88.00;;;;;;5020120;28;20664;-91
2021/07/23 12:09:05;;;;;;;12.57;11.37;;;29.30;88.50;;;;;;5025657;28;21044;-92
2021/07/23 12:11:35;;;;;;;13.53;12.20;;;29.00;88.60;;;;;;5026178;28;20985;-92
2021/07/23 12:14:13;;;;;;;12.13;11.20;;;28.50;90.40;;;;;;5025186;28;20637;-91
2021/07/23 12:16:41;;;;;;;12.00;10.90;;;28.20;91.30;;;;;;5022146;28;20665;-91
2021/07/23 12:19:12;;;;;;;12.43;10.17;;;28.10;90.90;;;;;;5023894;28;20658;-91
2021/07/23 12:21:40;;;;;;;11.80;10.90;;;28.10;90.60;;;;;;5024601;28;20979;-90
2021/07/23 12:24:10;;;;;;;11.60;10.70;;;29.10;90.10;;;;;;5018319;28;20631;-90
2021/07/23 12:26:39;;;;;;;10.97;10.07;;;30.30;86.60;;;;;;5020327;28;21232;-90
2021/07/23 12:29:07;;;;;;;12.13;11.23;;;31.00;82.60;;;;;;5020405;28;20669;-90
2021/07/23 12:31:37;;;;;;;11.50;10.70;;;31.20;81.60;;;;;;5018302;28;20670;-90
2021/07/23 12:34:08;;;;;;;10.70;9.90;;;31.20;80.00;;;;;;5023739;28;20638;-90
2021/07/23 12:36:43;;;;;;;10.30;9.50;;;31.80;79.00;;;;;;5024174;28;20648;-90
2021/07/23 12:39:11;;;;;;;9.73;8.80;;;32.20;75.80;;;;;;5021118;28;20618;-91
2021/07/23 12:41:40;;;;;;;11.57;10.77;;;32.80;75.80;;;;;;5025352;28;21008;-91
2021/07/23 12:44:09;;;;;;;11.40;10.47;;;33.60;73.10;;;;;;5017328;28;20709;-91
2021/07/23 12:46:37;;;;;;;11.33;10.43;;;34.40;69.80;;;;;;5023479;28;20653;-91
2021/07/23 12:49:15;;;;;;;10.90;9.87;;;34.00;67.50;;;;;;5023279;28;21124;-91
2021/07/23 12:51:43;;;;;;;11.33;10.33;;;34.20;64.70;;;;;;5024725;28;20695;-91
2021/07/23 12:54:12;;;;;;;10.77;9.87;;;33.30;64.90;;;;;;5023421;28;21141;-91
2021/07/23 12:56:39;;;;;;;11.47;10.47;;;34.40;60.50;;;;;;5025701;28;20672;-90
2021/07/23 12:59:26;;;;;;;11.07;10.00;;;35.00;58.10;;;;;;5022160;28;20662;-90
2021/07/23 13:01:54;;;;;;;11.37;10.37;;;34.10;57.40;;;;;;5021731;28;20637;-90
2021/07/23 13:04:21;;;;;;;10.57;9.63;;;34.30;57.30;;;;;;5022591;28;20633;-91
2021/07/23 13:06:48;;;;;;;10.40;9.57;;;35.30;56.00;;;;;;5021927;28;21018;-90
2021/07/23 13:09:16;;;;;;;10.90;10.10;;;33.50;56.00;;;;;;5020782;28;20666;-90
2021/07/23 13:11:43;;;;;;;10.83;10.10;;;33.50;57.20;;;;;;5021034;28;20660;-90
2021/07/23 13:14:10;;;;;;;11.20;10.27;;;33.60;58.40;;;;;;5022315;28;21254;-90
2021/07/23 13:16:39;;;;;;;11.10;10.30;;;34.00;59.70;;;;;;5021349;28;20650;-90
2021/07/23 13:19:05;;;;;;;10.03;9.33;;;34.40;57.10;;;;;;5018992;28;20919;-90
2021/07/23 13:21:32;;;;;;;12.60;11.17;;;34.80;55.70;;;;;;5015204;28;20626;-90
2021/07/23 13:24:01;;;;;;;11.70;10.70;;;35.20;55.30;;;;;;5021589;28;20622;-88
2021/07/23 13:26:29;;;;;;;10.73;10.00;;;35.20;53.70;;;;;;5025554;28;20663;-90
2021/07/23 13:28:56;;;;;;;10.50;9.80;;;34.90;54.30;;;;;;5020873;28;20661;-89
2021/07/23 13:31:24;;;;;;;10.50;9.80;;;34.20;54.60;;;;;;5024204;28;20998;-89
2021/07/23 13:33:52;;;;;;;9.47;8.67;;;34.40;55.20;;;;;;5022861;28;20761;-91
2021/07/23 13:36:26;;;;;;;12.07;11.17;;;34.40;55.00;;;;;;5016941;28;20663;-91
2021/07/23 13:38:57;;;;;;;11.50;10.00;;;34.10;54.50;;;;;;5023707;28;20633;-89
2021/07/23 13:41:27;;;;;;;12.47;9.77;;;34.00;57.20;;;;;;5024295;28;20629;-90
2021/07/23 13:43:55;;;;;;;11.67;10.67;;;34.80;54.80;;;;;;5021095;28;20635;-89
2021/07/23 13:46:25;;;;;;;11.60;10.60;;;34.90;53.90;;;;;;5023800;28;20654;-89
2021/07/23 13:48:52;;;;;;;11.60;10.70;;;34.90;53.70;;;;;;5022757;28;20693;-89
2021/07/23 13:51:20;;;;;;;10.57;9.87;;;35.20;54.10;;;;;;5020481;28;21119;-89
2021/07/23 13:53:47;;;;;;;10.53;9.73;;;35.20;53.40;;;;;;5021695;28;20630;-89
2021/07/23 13:56:14;;;;;;;11.87;10.73;;;34.60;54.00;;;;;;5019662;28;20689;-89
2021/07/23 13:58:42;;;;;;;10.73;9.93;;;34.60;53.60;;;;;;5020265;28;20614;-89
2021/07/23 14:01:10;;;;;;;11.40;10.60;;;34.20;54.10;;;;;;5021576;28;20654;-89
2021/07/23 14:03:37;;;;;;;11.13;10.13;;;35.00;53.50;;;;;;5020804;28;20630;-89
2021/07/23 14:06:04;;;;;;;11.23;10.33;;;34.90;53.40;;;;;;5015842;28;21292;-89
2021/07/23 14:08:30;;;;;;;10.40;9.70;;;35.30;52.10;;;;;;5019136;28;20693;-90
2021/07/23 14:10:59;;;;;;;9.73;9.03;;;35.40;51.20;;;;;;5022439;28;20634;-89
2021/07/23 14:13:26;;;;;;;11.87;10.97;;;34.50;52.10;;;;;;5024293;28;21260;-89
2021/07/23 14:15:52;;;;;;;13.70;9.50;;;34.40;51.40;;;;;;5021014;28;20672;-89
2021/07/23 14:18:21;;;;;;;9.93;9.23;;;34.50;52.20;;;;;;5022853;28;20618;-88
2021/07/23 14:20:50;;;;;;;9.90;9.20;;;34.70;51.60;;;;;;5024167;28;20658;-88
2021/07/23 14:23:16;;;;;;;10.13;9.07;;;34.90;51.70;;;;;;5020330;28;21157;-89
2021/07/23 14:25:43;;;;;;;11.00;9.90;;;35.30;51.30;;;;;;5021194;28;20661;-88
2021/07/23 14:28:11;;;;;;;10.10;9.27;;;34.80;50.80;;;;;;5020794;28;20662;-88
2021/07/23 14:30:39;;;;;;;10.17;9.47;;;34.50;51.80;;;;;;5019331;28;20606;-88
2021/07/23 14:33:05;;;;;;;10.00;9.30;;;34.40;52.80;;;;;;5021993;28;20587;-88
2021/07/23 14:35:35;;;;;;;9.93;9.23;;;34.70;51.40;;;;;;5018253;28;20661;-88
2021/07/23 14:38:02;;;;;;;10.43;9.43;;;35.30;49.90;;;;;;5020818;28;20713;-89
2021/07/23 14:40:28;;;;;;;11.00;10.20;;;34.60;50.00;;;;;;5023517;28;20638;-88
2021/07/23 14:42:55;;;;;;;10.07;9.27;;;34.40;50.20;;;;;;5022652;28;20644;-88
2021/07/23 14:45:22;;;;;;;11.00;10.10;;;34.30;52.40;;;;;;5023404;28;20650;-88
2021/07/23 14:47:49;;;;;;;10.57;9.60;;;34.30;52.00;;;;;;5018709;28;20638;-88
2021/07/23 14:50:16;;;;;;;10.63;9.77;;;35.00;51.50;;;;;;5012889;28;20661;-88
2021/07/23 14:52:44;;;;;;;10.40;9.60;;;35.10;51.00;;;;;;5018340;28;20630;-88
2021/07/23 14:55:12;;;;;;;10.53;9.73;;;35.10;50.10;;;;;;5019522;28;20642;-88
2021/07/23 14:57:40;;;;;;;11.23;10.23;;;35.40;50.10;;;;;;5022187;28;20634;-88
2021/07/23 15:00:08;;;;;;;10.33;9.43;;;35.80;50.00;;;;;;5023328;28;20630;-88